Terminal Aerodrome Forecast
Issued by NWS

Home | Current Version | Previous Version | Text Only | Print | Product List | Glossary On
Versions: 1 2 3 4 5 6 7 8 9 10 11 12 13 14 15 16 17 18 19 20 21 22 23 24 25 26 27
000
FTUS45 KREV 291100
TAFRNO
TAF
KRNO 291120Z 2912/3012 VRB04KT P6SM BKN140 OVC200
     FM292100 33008KT P6SM VCSH SCT080 BKN120
     FM300400 VRB04KT P6SM SCT140=

USA.gov is the U.S. government's official web portal to all federal, state and local government web resources and services.